MOL Partner — 3EBZ5 — position and weather

sailwx.info

Track history (hours):
 
Tides and Currents Weather Stations Pressure Air Temp Water Temp Dewpoint Dewpoint Depression Visibility Wind Speed Wind Dir Waves Ship Positions

MOL Partner

Last reported at 2018-Apr-24 22:28 UTC. Time now 2018-Apr-24 22:41 UTC.
Position N 01°17' E 103°47'.

Length 293 m; draft 10.8 m.

Type: Cargo ship. MMSI: 371303000.

Date/timePositionNaut miles runAvg speedWind from/ knotsBaromVisibWave heightAir tempDewpointWater temp
2018-Apr-24 22:28N 01°17' E 103°47'0 0.0
2018-Apr-24 21:57N 01°17' E 103°47'0 0.0
2018-Apr-24 21:25N 01°17' E 103°47'0 0.0
2018-Apr-24 20:59N 01°17' E 103°47'0 0.0
2018-Apr-24 20:28N 01°17' E 103°47'0 0.0
2018-Apr-24 20:00N 01°17' E 103°47'0 0.0
2018-Apr-24 19:28N 01°17' E 103°47'0 0.0
2018-Apr-24 18:59N 01°17' E 103°47'0 0.0
2018-Apr-24 18:29N 01°17' E 103°47'0 0.0
2018-Apr-24 17:56N 01°17' E 103°47'0 0.0
2018-Apr-24 17:25N 01°17' E 103°47'0 0.0
2018-Apr-24 16:58N 01°17' E 103°47'0 0.0
2018-Apr-24 16:27N 01°17' E 103°47'0 0.9
2018-Apr-24 16:00N 01°16' E 103°47'3 6.3
2018-Apr-24 15:29N 01°13' E 103°48'4 9.1
2018-Apr-24 15:00N 01°13' E 103°52'2 4.3
2018-Apr-24 14:30N 01°14' E 103°54'3 5.6
2018-Apr-24 13:59N 01°15' E 103°57'4 8.4
2018-Apr-24 13:28N 01°15' E 104°01'510.1
2018-Apr-24 12:59N 01°16' E 104°06'4 8.7
2018-Apr-24 12:30N 01°17' E 104°10'5 9.0
2018-Apr-24 11:59N 01°18' E 104°15'5 9.1
2018-Apr-24 11:28N 01°19' E 104°19'511.3
2018-Apr-24 10:59N 01°22' E 104°24'610.9
2018-Apr-24 10:29N 01°25' E 104°28'1111.6
2018-Apr-24 09:33N 01°34' E 104°34'115.0
2018-Apr-24 09:29N 01°35' E 104°35'  
Track history (hours):
 
Tides and Currents Weather Stations Pressure Air Temp Water Temp Dewpoint Dewpoint Depression Visibility Wind Speed Wind Dir Waves Ship Positions

MOL Partner

Last reported at 2018-Apr-24 22:28 UTC. Time now 2018-Apr-24 22:41 UTC.
Position N 01°17' E 103°47'.

Length 293 m; draft 10.8 m.

Type: Cargo ship. MMSI: 371303000.

Date/timePositionNaut miles runAvg speedWind from/ knotsBaromVisibWave heightAir tempDewpointWater temp
2018-Apr-24 22:28N 01°17' E 103°47'0 0.0
2018-Apr-24 21:57N 01°17' E 103°47'0 0.0
2018-Apr-24 21:25N 01°17' E 103°47'0 0.0
2018-Apr-24 20:59N 01°17' E 103°47'0 0.0
2018-Apr-24 20:28N 01°17' E 103°47'0 0.0
2018-Apr-24 20:00N 01°17' E 103°47'0 0.0
2018-Apr-24 19:28N 01°17' E 103°47'0 0.0
2018-Apr-24 18:59N 01°17' E 103°47'0 0.0
2018-Apr-24 18:29N 01°17' E 103°47'0 0.0
2018-Apr-24 17:56N 01°17' E 103°47'0 0.0
2018-Apr-24 17:25N 01°17' E 103°47'0 0.0
2018-Apr-24 16:58N 01°17' E 103°47'0 0.0
2018-Apr-24 16:27N 01°17' E 103°47'0 0.9
2018-Apr-24 16:00N 01°16' E 103°47'3 6.3
2018-Apr-24 15:29N 01°13' E 103°48'4 9.1
2018-Apr-24 15:00N 01°13' E 103°52'2 4.3
2018-Apr-24 14:30N 01°14' E 103°54'3 5.6
2018-Apr-24 13:59N 01°15' E 103°57'4 8.4
2018-Apr-24 13:28N 01°15' E 104°01'510.1
2018-Apr-24 12:59N 01°16' E 104°06'4 8.7
2018-Apr-24 12:30N 01°17' E 104°10'5 9.0
2018-Apr-24 11:59N 01°18' E 104°15'5 9.1
2018-Apr-24 11:28N 01°19' E 104°19'511.3
2018-Apr-24 10:59N 01°22' E 104°24'610.9
2018-Apr-24 10:29N 01°25' E 104°28'1111.6
2018-Apr-24 09:33N 01°34' E 104°34'115.0
2018-Apr-24 09:29N 01°35' E 104°35'  

Dump ship's entire track history